Latest Weather Observations for Charles Point

IDD60901

Issued at 11:21 am CST Wednesday 1 June 2016 (issued every 10 minutes, with the page automatically refreshed every 10 minutes)

About weather observations | Map of Darwin area stations | Latest observations for Darwin area | Other Formats
Station Details ID: 014031 Name: CHARLES POINT Lat: -12.39 Lon: 130.63 Height: 14.0 m
Data from the previous 72 hours. | See also: Recent months for locations in Northern Territory
Date/Time
CST
Tmp

°C
App
Tmp
°C
Dew
Point
°C
Rel
Hum
%
Delta-T

°C
Wind Press
QNH
hPa
Press
MSL
hPa
Rain
since
9 am
mm
Dir
 
Spd
km/h
Gust
km/h
Spd
kts
Gust
kts
01/11:00am 30.6 34.3 22.5 62 5.5 ENE 7 13 4 7 1014.3 1014.2 0.0
01/10:30am 30.6 34.3 22.5 62 5.5 ENE 7 13 4 7 1014.6 1014.5 0.0
01/10:00am 29.5 33.4 23.0 68 4.4 E 7 15 4 8 1014.8 1014.7 0.0
01/09:30am 29.8 34.2 23.5 69 4.3 ESE 6 9 3 5 1014.7 1014.6 0.0
01/09:00am 28.5 32.9 23.4 74 3.5 SE 6 11 3 6 1014.8 1014.7 0.0
01/08:30am 27.4 32.1 23.4 79 2.7 SSE 4 6 2 3 1014.8 1014.7 0.0
01/08:00am 25.9 30.1 23.2 85 1.8 SE 6 7 3 4 1014.6 1014.5 0.0
01/07:30am 24.8 28.8 22.7 88 1.4 SSE 6 9 3 5 1014.3 1014.2 0.0
01/07:00am 25.2 29.0 22.7 86 1.7 SE 7 9 4 5 1014.1 1014.0 0.0
01/06:30am 25.3 29.1 22.4 84 1.9 SE 6 9 3 5 1013.8 1013.7 0.0
01/06:00am 25.3 29.1 22.4 84 1.9 SE 6 9 3 5 1013.4 1013.3 0.0
01/05:30am 24.4 27.9 21.9 86 1.7 SE 6 7 3 4 1013.3 1013.2 0.0
01/05:00am 23.9 26.9 21.2 85 1.8 SSE 7 9 4 5 1013.1 1013.0 0.0
01/04:30am 24.7 28.3 21.2 81 2.3 SSE 4 7 2 4 1012.9 1012.8 0.0
01/04:00am 23.4 27.0 21.3 88 1.4 S 4 6 2 3 1012.8 1012.7 0.0
01/03:30am 23.6 27.1 21.9 90 1.1 S 6 7 3 4 1012.7 1012.6 0.0
01/03:00am 23.7 27.2 21.8 89 1.3 S 6 7 3 4 1012.8 1012.7 0.0
01/02:30am 24.0 27.6 22.1 89 1.3 S 6 7 3 4 1013.0 1012.9 0.0
01/02:00am 24.1 27.6 21.8 87 1.5 S 6 7 3 4 1013.3 1013.2 0.0
01/01:30am 24.6 28.1 22.1 86 1.7 S 7 9 4 5 1013.5 1013.4 0.0
01/01:00am 24.9 28.3 22.0 84 1.9 S 7 11 4 6 1013.7 1013.6 0.0
01/12:30am 24.6 27.9 21.9 85 1.8 S 7 11 4 6 1013.7 1013.6 0.0
01/12:00am 25.0 28.0 21.9 83 2.1 S 9 11 5 6 1013.7 1013.6 0.0
 
Date/Time
CST
Tmp

°C
App
Tmp
°C
Dew
Point
°C
Rel
Hum
%
Delta-T

°C
Wind Press
QNH
hPa
Press
MSL
hPa
Rain
since
9 am
mm
Dir
 
Spd
km/h
Gust
km/h
Spd
kts
Gust
kts
31/11:30pm 25.0 28.0 21.9 83 2.1 S 9 11 5 6 1013.8 1013.7 0.0
31/11:00pm 24.9 28.3 22.0 84 1.9 S 7 9 4 5 1013.7 1013.6 0.0
31/10:30pm 24.6 27.9 21.9 85 1.8 ENE 7 7 4 4 1013.7 1013.6 0.0
31/10:00pm 26.0 30.1 22.3 80 2.5 NE 4 6 2 3 1013.6 1013.5 0.0
31/09:30pm 27.8 31.7 21.8 70 4.0 NE 4 6 2 3 1013.3 1013.2 0.0
31/09:00pm 28.6 32.1 22.1 68 4.4 ENE 7 11 4 6 1013.1 1013.0 0.0
31/08:30pm 28.6 31.9 21.9 67 4.5 ENE 7 13 4 7 1012.9 1012.8 0.0
31/08:00pm 28.6 31.9 21.9 67 4.5 ENE 7 15 4 8 1012.6 1012.5 0.0
31/07:30pm 28.9 31.4 22.4 68 4.4 NE 13 19 7 10 1012.2 1012.1 0.0
31/07:00pm 28.8 31.6 22.3 68 4.4 NE 11 17 6 9 1011.8 1011.7 0.0
31/06:30pm 29.0 31.1 22.5 68 4.4 NE 15 20 8 11 1011.6 1011.5 0.0
31/06:00pm 29.4 31.0 22.9 68 4.4 NE 19 28 10 15 1011.2 1011.1 0.0
31/05:30pm 29.5 31.0 22.7 67 4.6 NE 19 24 10 13 1011.2 1011.1 0.0
31/05:00pm 29.9 31.2 22.6 65 5.0 NNE 20 28 11 15 1010.8 1010.7 0.0
31/04:30pm 30.4 32.4 22.3 62 5.5 NNE 15 22 8 12 1010.9 1010.8 0.0
31/04:00pm 30.7 33.3 22.6 62 5.5 NE 13 20 7 11 1011.0 1010.9 0.0
31/03:30pm 31.1 33.4 22.1 58 6.1 NNE 13 20 7 11 1011.1 1011.0 0.0
31/03:00pm 31.1 33.3 21.9 58 6.2 NNE 13 19 7 10 1011.2 1011.1 0.0
31/02:30pm 32.0 34.5 21.8 54 6.9 NNE 11 17 6 9 1011.5 1011.4 0.0
31/02:00pm 31.3 33.5 21.2 55 6.8 NE 11 17 6 9 1011.7 1011.6 0.0
31/01:30pm 31.7 34.4 22.1 56 6.5 NE 11 17 6 9 1012.2 1012.1 0.0
31/01:00pm 32.7 35.5 21.5 51 7.6 E 9 19 5 10 1012.7 1012.6 0.0
31/12:30pm 31.5 34.6 22.2 57 6.3 ENE 9 13 5 7 1013.2 1013.1 0.0
31/12:00pm 31.4 35.0 22.4 59 6.1 ENE 7 13 4 7 1013.6 1013.5 0.0
31/11:30am 31.3 35.0 22.6 60 5.9 E 7 15 4 8 1014.1 1014.0 0.0
31/11:00am 31.2 34.7 22.8 61 5.8 E 9 15 5 8 1014.5 1014.4 0.0
31/10:30am 30.6 34.5 23.0 64 5.2 E 7 15 4 8 1014.8 1014.7 0.0
31/10:00am 29.3 32.3 22.0 64 4.9 E 9 20 5 11 1014.9 1014.8 0.0
31/09:30am 28.9 31.8 22.4 68 4.4 ESE 11 19 6 10 1014.9 1014.8 0.0
31/09:00am 28.6 31.7 22.1 68 4.4 ESE 9 19 5 10 1014.9 1014.8 0.0
31/08:30am 27.8 31.9 23.2 76 3.1 SE 7 11 4 6 1014.5 1014.4 0.0
31/08:00am 26.3 30.2 23.0 82 2.2 SSE 7 11 4 6 1014.2 1014.1 0.0
31/07:30am 25.3 29.4 23.0 87 1.6 S 6 9 3 5 1013.9 1013.8 0.0
31/07:00am 24.9 28.5 23.0 89 1.3 SSE 9 13 5 7 1013.7 1013.6 0.0
31/06:30am 24.7 28.2 22.9 90 1.2 SSE 9 15 5 8 1013.5 1013.4 0.0
31/06:00am 24.8 28.2 22.7 88 1.4 SSE 9 15 5 8 1013.2 1013.1 0.0
31/05:30am 24.7 28.0 22.6 88 1.4 SSE 9 13 5 7 1012.9 1012.8 0.0
31/05:00am 24.7 27.9 22.4 87 1.5 SSE 9 15 5 8 1012.8 1012.7 0.0
31/04:30am 24.9 28.1 22.4 86 1.7 SSE 9 13 5 7 1012.8 1012.7 0.0
31/04:00am 25.1 28.3 22.4 85 1.8 SSE 9 13 5 7 1012.7 1012.6 0.0
31/03:30am 25.4 29.1 22.5 84 2.0 SSE 7 13 4 7 1012.9 1012.8 0.0
31/03:00am 25.2 29.0 22.7 86 1.7 SSE 7 9 4 5 1012.9 1012.8 0.0
31/02:30am 25.5 29.3 22.8 85 1.8 SSE 7 9 4 5 1012.9 1012.8 0.0
31/02:00am 26.8 31.2 22.8 79 2.7 E 4 9 2 5 1013.1 1013.0 0.0
31/01:30am 28.7 32.7 23.1 71 3.8 NE 7 13 4 7 1013.0 1012.9 0.0
31/01:00am 29.0 31.9 23.2 71 4.0 NE 13 17 7 9 1012.9 1012.8 0.0
31/12:30am 29.1 32.4 23.8 73 3.7 NE 13 19 7 10 1012.9 1012.8 0.0
31/12:00am 29.1 32.9 23.5 72 3.9 NE 9 13 5 7 1013.0 1012.9 0.0
 
Date/Time
CST
Tmp

°C
App
Tmp
°C
Dew
Point
°C
Rel
Hum
%
Delta-T

°C
Wind Press
QNH
hPa
Press
MSL
hPa
Rain
since
9 am
mm
Dir
 
Spd
km/h
Gust
km/h
Spd
kts
Gust
kts
30/11:30pm 29.1 32.9 23.5 72 3.9 NE 9 13 5 7 1013.1 1013.0 0.0
30/11:00pm 29.1 32.7 23.8 73 3.7 NNE 11 15 6 8 1013.4 1013.3 0.0
30/10:30pm 29.4 33.0 23.8 72 3.9 NE 11 15 6 8 1013.4 1013.3 0.0
30/10:00pm 29.4 32.3 23.1 69 4.3 NE 13 19 7 10 1013.3 1013.2 0.0
30/09:30pm 29.5 32.4 23.9 72 3.9 NE 15 19 8 10 1013.2 1013.1 0.0
30/09:00pm 29.5 32.5 23.4 69 4.2 NE 13 19 7 10 1013.0 1012.9 0.0
30/08:30pm 29.6 31.9 22.8 67 4.6 NE 15 20 8 11 1012.8 1012.7 0.0
30/08:00pm 29.4 31.9 23.1 69 4.3 NE 15 24 8 13 1012.5 1012.4 0.0
30/07:30pm 29.4 32.2 23.6 71 4.0 NE 15 22 8 12 1012.3 1012.2 0.0
30/07:00pm 29.5 31.0 22.7 67 4.6 NE 19 24 10 13 1012.1 1012.0 0.0
30/06:30pm 29.7 31.6 23.4 69 4.3 NE 19 26 10 14 1011.6 1011.5 0.0
30/06:00pm 29.8 31.4 22.8 66 4.8 NE 19 24 10 13 1011.2 1011.1 0.0
30/05:30pm 30.0 31.8 23.2 67 4.7 NE 19 28 10 15 1010.8 1010.7 0.0
30/05:00pm 30.3 31.8 23.0 65 5.0 NE 20 28 11 15 1010.5 1010.4 0.0
30/04:30pm 30.6 32.0 22.5 62 5.5 NE 19 26 10 14 1010.3 1010.2 0.0
30/04:00pm 30.4 32.2 22.6 63 5.3 NE 17 22 9 12 1010.3 1010.2 0.0
30/03:30pm 31.4 33.1 23.0 61 5.8 NE 19 26 10 14 1010.3 1010.2 0.0
30/03:00pm 31.1 33.4 22.7 61 5.8 NE 15 24 8 13 1010.4 1010.3 0.0
30/02:30pm 31.5 33.9 22.2 57 6.3 NE 13 20 7 11 1010.7 1010.6 0.0
30/02:00pm 31.5 34.2 22.8 60 6.0 NE 13 17 7 9 1010.9 1010.8 0.0
30/01:30pm 31.1 34.2 23.5 64 5.3 NE 13 19 7 10 1011.6 1011.5 0.0
30/01:00pm 31.1 33.7 22.7 61 5.7 NE 13 20 7 11 1012.1 1012.0 0.0
30/12:30pm 32.1 36.0 23.6 60 5.9 ENE 9 19 5 10 1012.6 1012.5 0.0
30/12:00pm 31.4 35.4 23.8 64 5.3 ENE 9 17 5 9 1013.1 1013.0 0.0
30/11:30am 31.3 35.3 23.7 64 5.3 ENE 9 15 5 8 1013.4 1013.3 0.0
30/11:00am 30.8 35.6 24.4 68 4.5 E 7 17 4 9 1013.9 1013.8 0.0
30/10:30am 30.1 33.4 23.8 69 4.4 E 13 20 7 11 1014.1 1014.0 0.0
30/10:00am 29.6 33.6 23.8 71 4.0 ESE 9 20 5 11 1014.3 1014.2 0.0
30/09:30am 29.1 33.4 24.2 75 3.4 SE 9 17 5 9 1014.3 1014.2 0.0
30/09:00am 28.1 32.3 24.1 79 2.8 SE 9 13 5 7 1014.1 1014.0 0.0
30/08:30am 26.9 31.1 23.4 81 2.4 SSE 7 11 4 6 1014.0 1013.9 0.0
30/08:00am 25.8 29.9 23.3 86 1.7 SSE 7 13 4 7 1013.7 1013.6 0.0
30/07:30am 25.2 29.4 23.4 90 1.2 SE 7 13 4 7 1013.4 1013.3 0.0
30/07:00am 24.9 29.1 23.5 92 1.0 SE 7 11 4 6 1012.9 1012.8 0.0
30/06:30am 24.8 29.0 23.4 92 1.0 SSE 7 9 4 5 1012.5 1012.4 0.0
30/06:00am 24.8 28.9 23.2 91 1.1 SSE 7 9 4 5 1012.3 1012.2 0.0
30/05:30am 25.1 29.2 23.3 90 1.2 SSE 7 9 4 5 1012.0 1011.9 0.0
30/05:00am 24.8 28.7 23.0 90 1.2 SSE 7 11 4 6 1012.0 1011.9 0.0
30/04:30am 24.4 28.4 22.8 91 1.1 SSW 6 7 3 4 1011.9 1011.8 0.0
30/04:00am 24.1 28.2 22.9 93 0.8 WNW 6 6 3 3 1011.7 1011.6 0.0
30/03:30am 24.1 29.3 22.9 93 0.8 CALM 0 4 0 2 1011.7 1011.6 0.0
30/03:00am 24.4 29.6 22.8 91 1.1 CALM 0 0 0 0 1011.9 1011.8 0.0
30/02:30am 25.3 29.7 22.8 86 1.7 N 4 7 2 4 1012.0 1011.9 0.0
30/02:00am 25.2 30.1 23.1 88 1.4 N 2 7 1 4 1012.3 1012.2 0.0
30/01:30am 25.0 30.0 23.2 90 1.2 N 2 4 1 2 1012.6 1012.5 0.0
30/01:00am 25.3 30.8 23.4 89 1.3 CALM 0 0 0 0 1012.9 1012.8 0.0
30/12:30am 26.4 30.9 22.9 81 2.4 NNW 4 6 2 3 1013.1 1013.0 0.0
30/12:00am 25.9 30.4 23.0 84 2.0 N 4 9 2 5 1013.3 1013.2 0.0
 
Date/Time
CST
Tmp

°C
App
Tmp
°C
Dew
Point
°C
Rel
Hum
%
Delta-T

°C
Wind Press
QNH
hPa
Press
MSL
hPa
Rain
since
9 am
mm
Dir
 
Spd
km/h
Gust
km/h
Spd
kts
Gust
kts
29/11:30pm 28.8 31.9 22.8 70 4.1 N 11 15 6 8 1013.3 1013.2 0.0
29/11:00pm 28.9 32.2 22.6 69 4.3 N 9 13 5 7 1013.4 1013.3 0.0
29/10:30pm 24.5 29.2 22.6 89 1.3 NNE 2 6 1 3 1013.4 1013.3 0.0
29/10:00pm 24.4 29.5 22.7 90 1.1 CALM 0 0 0 0 1013.3 1013.2 0.0
29/09:30pm 24.6 29.7 22.7 89 1.3 CALM 0 0 0 0 1013.3 1013.2 0.0
29/09:00pm 24.7 29.8 22.6 88 1.4 CALM 0 0 0 0 1013.0 1012.9 0.0
29/08:30pm 24.9 30.1 22.8 88 1.4 CALM 0 0 0 0 1012.9 1012.8 0.0
29/08:00pm 25.2 30.3 22.7 86 1.7 CALM 0 0 0 0 1012.7 1012.6 0.0
29/07:30pm 25.9 31.0 22.6 82 2.2 CALM 0 0 0 0 1012.3 1012.2 0.0
29/07:00pm 27.1 32.1 22.5 76 3.1 CALM 0 2 0 1 1012.2 1012.1 0.0
29/06:30pm 29.3 32.9 22.0 64 4.9 NNE 6 9 3 5 1011.8 1011.7 0.0
29/06:00pm 29.8 33.2 21.7 61 5.5 NNE 6 11 3 6 1011.6 1011.5 0.0
29/05:30pm 30.1 33.4 21.5 60 5.8 NE 6 9 3 5 1011.4 1011.3 0.0
29/05:00pm 30.6 34.5 22.5 62 5.5 ENE 6 6 3 3 1011.0 1010.9 0.0
29/04:30pm 30.9 34.6 22.2 59 5.9 NE 6 7 3 4 1010.9 1010.8 0.0
29/04:00pm 31.4 35.5 23.0 61 5.8 NE 6 9 3 5 1010.8 1010.7 0.0
29/03:30pm 31.8 36.3 23.6 62 5.7 ENE 6 9 3 5 1011.0 1010.9 0.0
29/03:00pm 30.9 35.2 23.3 64 5.2 ENE 6 9 3 5 1011.6 1011.5 0.0
29/02:30pm 29.8 33.8 23.7 70 4.2 ENE 9 17 5 9 1012.0 1011.9 0.0
29/02:00pm 30.5 33.1 23.9 68 4.6 NE 17 26 9 14 1012.1 1012.0 0.0
29/01:30pm 29.9 31.7 23.6 69 4.3 NE 20 28 11 15 1012.7 1012.6 0.0
29/01:00pm 29.6 31.5 23.5 69 4.2 NE 19 26 10 14 1012.8 1012.7 0.0
29/12:30pm 31.1 35.0 24.2 66 4.8 ENE 11 20 6 11 1013.4 1013.3 0.0
29/12:00pm 29.9 34.2 24.3 72 3.9 ENE 9 17 5 9 1013.7 1013.6 0.0
29/11:30am 30.7 34.4 23.9 67 4.7 ENE 11 19 6 10 1014.1 1014.0 0.0

Latest Capital City Observations: Canberra | Sydney | Melbourne | Brisbane | Adelaide | Perth | Hobart | Darwin

Other Formats:

Comma delimited format used in spreadsheet applications
http://www.bom.gov.au/fwo/IDD60901/IDD60901.99510.axf

JavaScript Object Notation format (JSON) in row-major order
http://www.bom.gov.au/fwo/IDD60901/IDD60901.99510.json